Alice International Airport
KALI : now visible

Airfield :











YOU CAN JOIN US ON...

 
LOGIN :

Register | Disclaimer

   EN    FR    IT 

 









Legend :    VFR   Marginal VFR   IFR   Intensive IFR   Very Intensive IFR
Visi :
Ceiling :
>= 8 km
>= 3000ft
5 to 8 km
1000 to 3000 ft
1500m to 5 km
500 to 1000 ft
800 to 1500m
200 to 500 ft
< 800m
< 200 ft
Symbols :   Thunderstorms  Fog  Heavy snow  Heavy precipitations  Wind > 20 kt






- Airport Elevation : 178 ft


KALI - Alice International

CURRENT METAR :
  • 172053Z AUTO 18013G23KT 10SM CLR 32/16 A2976 RMK AO2 SLP073 T03220161 58035 $

EXPIRED METARs :
  • 171953Z AUTO 18015G22KT 10SM FEW055 32/17 A2979 RMK AO2 SLP084 T03170172 $
  • 171853Z AUTO 20008KT 10SM SCT042 30/18 A2983 RMK AO2 SLP098 T03000183 $

TAF KALI
Valid from the 17 at 18:00 until the 18 at 18:00 UTC


171733Z 1718/1818 17012KT P6SM SCT018 BKN025
FM172100 16013G19KT P6SM SCT030 SCT250
FM180100 14011KT P6SM FEW020 BKN250
FM180600 16008KT 6SM BR BKN012
FM180900 17006KT 4SM BR OVC008
TEMPO 1810/1814 2SM BR OVC005
FM181600 17010KT P6SM OVC012



MET'MAP, your aeronautical weather chart ! - Copyright ORBIFLY December 2007 - Disclaimer

ORBIFLY MET'MAP TEAM :

Programming & Development : Alexandra Zaïnal
Concept & original design : Baudouin d'Aumeries
Assistance for programming : Marc-Olivier Méhu
Technical & hardware support : Manuel Goepfert

Contact : metmap@orbifly.com




SOURCES & CREDITS :

   NOAA       Earth
Advisory